Time;durP1;ratioP1;P1;durP2;ratioP2;P2;SDS_P1;SDS_P2;PMS_P1;PMS_P2;Temp;Humidity;BMP_temperature;BMP_pressure;BME280_temperature;BME280_humidity;BME280_pressure;Samples;Min_cycle;Max_cycle;Signal;HPM_P1;HPM_P2
2023/11/15 00:00:25;;;;;;;;;;;;;;;11.27;67.94;97064.13;5105382;27;20400;-71
2023/11/15 00:03:17;;;;;;;;;;;;;;;11.26;67.77;97063.34;5107716;27;19930;-71
2023/11/15 00:06:06;;;;;;;;;;;;;;;11.27;67.59;97067.66;5101953;27;19927;-71
2023/11/15 00:08:55;;;;;;;;;;;;;;;11.24;67.70;97065.63;5100259;27;19932;-71
2023/11/15 00:11:43;;;;;;;;;;;;;;;11.23;67.78;97068.66;5101352;27;19920;-70
2023/11/15 00:14:31;;;;;;;;;;;;;;;11.27;67.76;97059.50;5105527;28;19924;-71
2023/11/15 00:17:19;;;;;;;;;;;;;;;11.23;67.64;97061.28;5098798;28;20000;-71
2023/11/15 00:20:10;;;;;;;;;;;;;;;11.33;66.64;97072.88;5117564;27;20262;-70
2023/11/15 00:22:58;;;;;;;;;;;;;;;11.34;66.51;97090.78;5104046;28;20006;-70
2023/11/15 00:25:49;;;;;;;;;;;;;;;11.30;66.47;97074.34;5088116;28;19980;-70
2023/11/15 00:28:39;;;;;;;;;;;;;;;11.25;65.84;97097.09;5114861;27;20312;-70
2023/11/15 00:31:26;;;;;;;;;;;;;;;11.28;66.10;97093.69;5115595;27;19936;-71
2023/11/15 00:34:14;;;;;;;;;;;;;;;11.17;65.11;97092.53;5104825;28;20372;-70
2023/11/15 00:37:03;;;;;;;;;;;;;;;11.22;65.01;97099.69;5105548;27;20357;-71
2023/11/15 00:39:52;;;;;;;;;;;;;;;11.17;64.46;97102.63;5108585;27;20273;-71
2023/11/15 00:42:41;;;;;;;;;;;;;;;11.13;65.11;97112.56;5106435;27;19923;-71
2023/11/15 00:45:29;;;;;;;;;;;;;;;11.23;65.22;97123.03;5119527;27;19920;-72
2023/11/15 00:48:18;;;;;;;;;;;;;;;11.19;64.44;97124.84;5105831;27;19920;-70
2023/11/15 00:51:06;;;;;;;;;;;;;;;11.27;64.82;97126.69;5104494;27;19919;-70
2023/11/15 00:53:54;;;;;;;;;;;;;;;11.22;64.13;97140.47;5120296;27;20449;-71
2023/11/15 00:56:43;;;;;;;;;;;;;;;11.31;64.66;97127.59;5111865;27;19919;-71
2023/11/15 00:59:37;;;;;;;;;;;;;;;11.33;64.50;97143.56;5118973;27;19932;-71
2023/11/15 01:02:26;;;;;;;;;;;;;;;11.27;64.52;97156.59;5094671;28;20385;-71
2023/11/15 01:05:15;;;;;;;;;;;;;;;11.31;64.26;97162.16;5093071;28;19932;-71
2023/11/15 01:08:04;;;;;;;;;;;;;;;11.23;64.67;97182.84;5105813;27;19974;-71
2023/11/15 01:10:52;;;;;;;;;;;;;;;11.21;64.86;97190.56;5091086;27;19971;-71
2023/11/15 01:13:40;;;;;;;;;;;;;;;11.15;64.50;97192.69;5120378;27;20335;-71
2023/11/15 01:16:30;;;;;;;;;;;;;;;11.15;64.87;97198.13;5108385;27;19920;-71
2023/11/15 01:19:18;;;;;;;;;;;;;;;11.14;64.63;97201.19;5088305;28;19931;-70
2023/11/15 01:22:06;;;;;;;;;;;;;;;11.14;65.18;97195.75;5105928;27;20008;-71
2023/11/15 01:24:54;;;;;;;;;;;;;;;11.12;64.78;97203.41;5108393;27;19938;-71
2023/11/15 01:27:42;;;;;;;;;;;;;;;11.07;65.40;97200.88;5100350;27;19942;-70
2023/11/15 01:30:30;;;;;;;;;;;;;;;11.02;65.27;97194.53;5118422;27;19931;-71
2023/11/15 01:33:23;;;;;;;;;;;;;;;11.08;65.06;97213.34;5102398;28;19939;-71
2023/11/15 01:36:11;;;;;;;;;;;;;;;11.11;65.21;97212.69;5112960;27;19924;-71
2023/11/15 01:38:59;;;;;;;;;;;;;;;11.14;65.68;97212.06;5104140;27;19965;-71
2023/11/15 01:41:49;;;;;;;;;;;;;;;11.05;66.32;97216.75;5094954;27;20014;-71
2023/11/15 01:44:38;;;;;;;;;;;;;;;11.06;66.57;97221.06;5125040;27;19932;-70
2023/11/15 01:47:26;;;;;;;;;;;;;;;10.81;66.89;97220.88;5105307;27;20010;-71
2023/11/15 01:50:15;;;;;;;;;;;;;;;10.96;66.72;97220.31;5102832;27;19951;-71
2023/11/15 01:53:03;;;;;;;;;;;;;;;10.99;66.10;97219.66;5096691;28;19920;-71
2023/11/15 01:55:51;;;;;;;;;;;;;;;10.92;66.74;97232.97;5105962;27;19961;-70
2023/11/15 01:58:39;;;;;;;;;;;;;;;11.01;66.25;97232.91;5089760;28;21225;-71
2023/11/15 02:01:29;;;;;;;;;;;;;;;11.02;66.06;97235.31;5089545;27;19926;-71
2023/11/15 02:04:17;;;;;;;;;;;;;;;10.98;66.00;97241.75;5095881;28;19920;-70
2023/11/15 02:07:07;;;;;;;;;;;;;;;11.00;66.75;97255.78;5104476;27;19966;-71
2023/11/15 02:09:56;;;;;;;;;;;;;;;11.01;65.40;97247.28;5106375;27;20053;-71
2023/11/15 02:12:44;;;;;;;;;;;;;;;10.99;65.77;97265.88;5105895;27;19926;-70
2023/11/15 02:15:33;;;;;;;;;;;;;;;10.99;65.63;97263.16;5120911;27;19923;-71
2023/11/15 02:18:21;;;;;;;;;;;;;;;11.06;65.82;97264.53;5104129;27;19920;-70
2023/11/15 02:21:10;;;;;;;;;;;;;;;11.08;67.00;97278.59;5112549;28;20018;-70
2023/11/15 02:23:59;;;;;;;;;;;;;;;11.10;65.03;97273.63;5099181;27;19920;-71
2023/11/15 02:26:50;;;;;;;;;;;;;;;11.19;66.02;97274.38;5108192;27;20008;-70
2023/11/15 02:29:39;;;;;;;;;;;;;;;11.16;64.65;97280.47;5106546;27;19927;-71
2023/11/15 02:32:27;;;;;;;;;;;;;;;11.06;64.15;97289.81;5105393;27;19919;-71
2023/11/15 02:35:15;;;;;;;;;;;;;;;11.05;64.46;97292.84;5099987;27;19939;-71
2023/11/15 02:38:03;;;;;;;;;;;;;;;10.97;64.43;97286.31;5107759;27;19919;-71
2023/11/15 02:40:54;;;;;;;;;;;;;;;11.03;64.78;97293.19;5100284;27;19956;-71
2023/11/15 02:43:42;;;;;;;;;;;;;;;10.99;64.59;97303.91;5105885;27;19946;-70
2023/11/15 02:46:30;;;;;;;;;;;;;;;11.02;64.33;97300.56;5104384;27;20050;-71
2023/11/15 02:49:18;;;;;;;;;;;;;;;11.11;63.82;97318.72;5116428;27;19932;-70
2023/11/15 02:52:06;;;;;;;;;;;;;;;11.10;64.17;97308.97;5118917;27;19931;-71
2023/11/15 02:54:54;;;;;;;;;;;;;;;11.00;63.70;97321.81;5110318;27;19926;-70
2023/11/15 02:57:44;;;;;;;;;;;;;;;11.06;64.73;97321.63;5108456;28;19924;-70
2023/11/15 03:00:32;;;;;;;;;;;;;;;11.08;64.46;97332.94;5101259;27;20375;-71
2023/11/15 03:03:21;;;;;;;;;;;;;;;11.15;63.92;97333.25;5093888;28;19924;-71
2023/11/15 03:06:09;;;;;;;;;;;;;;;11.13;64.09;97338.19;5090387;28;19988;-70
2023/11/15 03:08:57;;;;;;;;;;;;;;;11.08;64.50;97328.34;5121846;27;19920;-70
2023/11/15 03:11:45;;;;;;;;;;;;;;;11.10;64.32;97347.81;5104536;27;19967;-71
2023/11/15 03:14:35;;;;;;;;;;;;;;;11.04;64.38;97353.78;5120810;27;19935;-71
2023/11/15 03:17:23;;;;;;;;;;;;;;;11.01;64.90;97372.31;5098906;27;19927;-72
2023/11/15 03:20:11;;;;;;;;;;;;;;;10.89;64.37;97377.66;5096290;28;19943;-71
2023/11/15 03:23:00;;;;;;;;;;;;;;;10.92;64.70;97382.47;5103379;28;19920;-72
2023/11/15 03:25:50;;;;;;;;;;;;;;;11.06;64.27;97393.09;5087944;27;19928;-71
2023/11/15 03:28:38;;;;;;;;;;;;;;;11.07;64.61;97385.72;5104174;27;19919;-71
2023/11/15 03:31:29;;;;;;;;;;;;;;;11.07;64.56;97407.47;5101902;28;19919;-72
2023/11/15 03:34:18;;;;;;;;;;;;;;;11.11;64.68;97411.16;5096290;27;20068;-71
2023/11/15 03:37:06;;;;;;;;;;;;;;;11.11;64.91;97420.09;5107505;28;19920;-71
2023/11/15 03:39:54;;;;;;;;;;;;;;;11.05;65.09;97423.34;5114623;27;19936;-71
2023/11/15 03:42:44;;;;;;;;;;;;;;;10.96;65.55;97423.34;5107817;27;19927;-71
2023/11/15 03:45:34;;;;;;;;;;;;;;;10.85;66.03;97439.22;5127267;27;19919;-72
2023/11/15 03:48:23;;;;;;;;;;;;;;;10.89;65.99;97451.03;5090093;27;19931;-71
2023/11/15 03:51:11;;;;;;;;;;;;;;;10.96;66.31;97453.25;5104354;27;19927;-71
2023/11/15 03:53:59;;;;;;;;;;;;;;;10.83;66.24;97457.78;5115074;27;19935;-72
2023/11/15 03:56:47;;;;;;;;;;;;;;;10.88;66.44;97471.19;5086442;28;19920;-71
2023/11/15 03:59:35;;;;;;;;;;;;;;;10.95;66.06;97479.63;5089933;27;19963;-72
2023/11/15 04:02:23;;;;;;;;;;;;;;;10.74;67.42;97476.81;5100850;27;19919;-71
2023/11/15 04:05:16;;;;;;;;;;;;;;;10.76;67.02;97479.22;5114565;27;20052;-71
2023/11/15 04:08:07;;;;;;;;;;;;;;;10.82;67.02;97477.91;5085499;28;20302;-72
2023/11/15 04:10:57;;;;;;;;;;;;;;;10.79;66.74;97500.28;5110563;27;19920;-72
2023/11/15 04:13:45;;;;;;;;;;;;;;;10.65;66.97;97505.09;5099734;28;19920;-71
2023/11/15 04:16:33;;;;;;;;;;;;;;;10.61;67.02;97509.59;5100312;27;20010;-72
2023/11/15 04:19:22;;;;;;;;;;;;;;;10.80;67.08;97504.59;5090458;27;19919;-71
2023/11/15 04:22:11;;;;;;;;;;;;;;;10.79;67.13;97519.31;5103044;28;20389;-72
2023/11/15 04:25:01;;;;;;;;;;;;;;;10.63;67.92;97531.78;5112497;27;19931;-72
2023/11/15 04:27:49;;;;;;;;;;;;;;;10.70;68.03;97526.66;5106196;28;19923;-71
2023/11/15 04:30:37;;;;;;;;;;;;;;;10.55;68.51;97525.25;5117279;27;20490;-72
2023/11/15 04:33:25;;;;;;;;;;;;;;;10.47;68.45;97543.13;5092144;28;20001;-71
2023/11/15 04:36:14;;;;;;;;;;;;;;;10.47;69.03;97537.72;5098605;28;19998;-71
2023/11/15 04:39:06;;;;;;;;;;;;;;;10.52;68.77;97539.47;5103438;28;20404;-71
2023/11/15 04:41:55;;;;;;;;;;;;;;;10.58;68.69;97564.56;5084863;28;19946;-71
2023/11/15 04:44:48;;;;;;;;;;;;;;;10.59;68.06;97556.06;5098357;28;19931;-72
2023/11/15 04:47:36;;;;;;;;;;;;;;;10.52;68.44;97561.19;5105001;28;19920;-71
2023/11/15 04:50:25;;;;;;;;;;;;;;;10.58;68.29;97559.91;5092944;28;20052;-72
2023/11/15 04:53:13;;;;;;;;;;;;;;;10.46;68.57;97562.47;5105666;28;20019;-71
2023/11/15 04:56:03;;;;;;;;;;;;;;;10.61;68.16;97570.16;5108861;27;19932;-71
2023/11/15 04:58:52;;;;;;;;;;;;;;;10.56;68.10;97564.09;5097931;28;20023;-72
2023/11/15 05:01:41;;;;;;;;;;;;;;;10.56;68.24;97578.47;5101901;28;20268;-72
2023/11/15 05:04:29;;;;;;;;;;;;;;;10.65;68.40;97578.44;5102766;28;20277;-72
2023/11/15 05:07:17;;;;;;;;;;;;;;;10.74;67.73;97579.25;5101353;28;19928;-73
2023/11/15 05:10:06;;;;;;;;;;;;;;;10.68;67.86;97580.53;5116056;27;20424;-71
2023/11/15 05:12:56;;;;;;;;;;;;;;;10.80;66.67;97588.84;5113317;27;19963;-72
2023/11/15 05:15:44;;;;;;;;;;;;;;;10.96;66.68;97595.38;5112408;27;19928;-71
2023/11/15 05:18:32;;;;;;;;;;;;;;;11.07;65.84;97600.50;5093506;28;19982;-72
2023/11/15 05:21:20;;;;;;;;;;;;;;;11.07;65.42;97597.78;5106797;27;19919;-72
2023/11/15 05:24:09;;;;;;;;;;;;;;;11.23;65.08;97596.94;5101460;27;20123;-72
2023/11/15 05:26:57;;;;;;;;;;;;;;;11.25;64.90;97599.34;5118347;27;19920;-71
2023/11/15 05:29:46;;;;;;;;;;;;;;;11.26;64.53;97600.94;5099955;27;19924;-72
2023/11/15 05:32:36;;;;;;;;;;;;;;;11.09;64.92;97601.78;5100915;27;19981;-71
2023/11/15 05:35:24;;;;;;;;;;;;;;;11.07;65.07;97608.66;5093454;28;19994;-72
2023/11/15 05:38:12;;;;;;;;;;;;;;;10.97;65.36;97610.59;5094788;27;19926;-71
2023/11/15 05:41:01;;;;;;;;;;;;;;;10.97;65.10;97617.91;5088289;27;19947;-72
2023/11/15 05:43:49;;;;;;;;;;;;;;;10.94;65.17;97621.28;5102744;27;20683;-72
2023/11/15 05:46:38;;;;;;;;;;;;;;;10.90;65.43;97621.13;5105100;27;20009;-72
2023/11/15 05:49:26;;;;;;;;;;;;;;;10.91;65.36;97617.28;5103647;27;20319;-72
2023/11/15 05:52:14;;;;;;;;;;;;;;;10.94;65.17;97616.66;5107450;27;19977;-72
2023/11/15 05:55:03;;;;;;;;;;;;;;;10.90;65.01;97621.13;5106098;27;20012;-71
2023/11/15 05:57:52;;;;;;;;;;;;;;;10.87;65.38;97616.34;5097756;27;19931;-71
2023/11/15 06:00:40;;;;;;;;;;;;;;;10.86;64.57;97630.25;5086525;28;19920;-71
2023/11/15 06:03:29;;;;;;;;;;;;;;;10.82;64.79;97632.81;5110093;27;20282;-72
2023/11/15 06:06:17;;;;;;;;;;;;;;;10.69;65.17;97620.16;5116783;27;19932;-72
2023/11/15 06:09:05;;;;;;;;;;;;;;;10.56;65.10;97626.56;5100352;27;19986;-72
2023/11/15 06:11:54;;;;;;;;;;;;;;;10.66;64.88;97637.13;5101962;28;20387;-71
2023/11/15 06:14:42;;;;;;;;;;;;;;;10.32;65.79;97641.34;5091948;27;19980;-71
2023/11/15 06:17:30;;;;;;;;;;;;;;;10.38;64.98;97659.09;5091443;28;19932;-72
2023/11/15 06:20:19;;;;;;;;;;;;;;;10.41;65.33;97655.75;5102357;27;20307;-72
2023/11/15 06:23:08;;;;;;;;;;;;;;;10.40;65.19;97662.31;5102219;27;20004;-71
2023/11/15 06:25:57;;;;;;;;;;;;;;;10.47;65.20;97668.06;5093198;27;19924;-71
2023/11/15 06:28:48;;;;;;;;;;;;;;;10.46;64.79;97671.91;5105333;28;20138;-71
2023/11/15 06:31:37;;;;;;;;;;;;;;;10.49;64.96;97674.00;5097595;28;20136;-71
2023/11/15 06:34:25;;;;;;;;;;;;;;;10.51;64.86;97672.88;5105246;27;20490;-71
2023/11/15 06:37:15;;;;;;;;;;;;;;;10.64;64.46;97682.81;5105010;27;20363;-71
2023/11/15 06:40:07;;;;;;;;;;;;;;;10.68;64.39;97683.78;5109595;27;19973;-71
2023/11/15 06:42:56;;;;;;;;;;;;;;;10.69;64.20;97693.53;5091083;28;20007;-73
2023/11/15 06:45:44;;;;;;;;;;;;;;;10.76;63.94;97696.59;5114726;27;20383;-71
2023/11/15 06:48:32;;;;;;;;;;;;;;;10.79;63.72;97690.50;5109408;27;19931;-71
2023/11/15 06:51:20;;;;;;;;;;;;;;;10.88;64.13;97687.81;5093753;28;19920;-71
2023/11/15 06:54:09;;;;;;;;;;;;;;;10.80;64.09;97683.94;5086454;28;20009;-71
2023/11/15 06:56:59;;;;;;;;;;;;;;;10.58;64.33;97695.75;5088822;27;19927;-71
2023/11/15 06:59:47;;;;;;;;;;;;;;;10.67;64.34;97695.78;5103640;27;19927;-71
2023/11/15 07:02:36;;;;;;;;;;;;;;;10.53;64.77;97692.38;5102345;27;19919;-71
2023/11/15 07:05:24;;;;;;;;;;;;;;;10.63;64.86;97702.94;5100388;27;19920;-72
2023/11/15 07:08:13;;;;;;;;;;;;;;;10.52;65.23;97701.66;5110915;28;20313;-72
2023/11/15 07:11:03;;;;;;;;;;;;;;;10.65;64.83;97711.56;5105676;28;19926;-72
2023/11/15 07:13:52;;;;;;;;;;;;;;;10.65;64.52;97709.69;5106394;27;19930;-71
2023/11/15 07:16:45;;;;;;;;;;;;;;;10.54;65.40;97716.50;5110072;28;19968;-73
2023/11/15 07:19:33;;;;;;;;;;;;;;;10.62;65.14;97721.16;5105512;28;19923;-72
2023/11/15 07:22:21;;;;;;;;;;;;;;;10.59;65.25;97726.41;5097604;27;20361;-72
2023/11/15 07:25:09;;;;;;;;;;;;;;;10.71;65.09;97734.78;5095692;27;20376;-72
2023/11/15 07:27:59;;;;;;;;;;;;;;;10.66;65.22;97741.16;5101564;27;19977;-72
2023/11/15 07:30:50;;;;;;;;;;;;;;;10.70;65.45;97742.09;5105373;27;20108;-72
2023/11/15 07:33:40;;;;;;;;;;;;;;;10.61;65.67;97741.31;5085859;28;19993;-72
2023/11/15 07:36:29;;;;;;;;;;;;;;;10.38;66.25;97735.13;5107076;27;19927;-72
2023/11/15 07:39:18;;;;;;;;;;;;;;;10.37;66.59;97749.84;5095564;27;19924;-72
2023/11/15 07:42:06;;;;;;;;;;;;;;;10.33;66.47;97757.00;5110683;27;20372;-72
2023/11/15 07:44:57;;;;;;;;;;;;;;;10.40;66.66;97746.50;5102773;27;19923;-72
2023/11/15 07:47:46;;;;;;;;;;;;;;;10.53;66.45;97761.06;5097538;27;19927;-71
2023/11/15 07:50:35;;;;;;;;;;;;;;;10.54;66.31;97757.25;5105913;27;20269;-71
2023/11/15 07:53:25;;;;;;;;;;;;;;;10.59;66.47;97757.09;5088711;28;19920;-71
2023/11/15 07:56:13;;;;;;;;;;;;;;;10.49;67.01;97763.63;5112554;27;20323;-71
2023/11/15 07:59:01;;;;;;;;;;;;;;;10.57;66.54;97772.13;5101456;28;20420;-71
2023/11/15 08:01:51;;;;;;;;;;;;;;;10.59;66.54;97780.75;5102541;27;19923;-72
2023/11/15 08:04:39;;;;;;;;;;;;;;;10.52;66.68;97781.22;5084356;28;19978;-72
2023/11/15 08:07:27;;;;;;;;;;;;;;;10.48;66.36;97805.47;5107793;27;20434;-71
2023/11/15 08:10:15;;;;;;;;;;;;;;;10.58;66.66;97795.44;5106950;27;19967;-71
2023/11/15 08:13:04;;;;;;;;;;;;;;;10.56;66.67;97806.63;5112764;27;19920;-72
2023/11/15 08:15:53;;;;;;;;;;;;;;;10.58;66.66;97803.59;5111487;28;19927;-71
2023/11/15 08:18:43;;;;;;;;;;;;;;;10.64;66.09;97807.78;5109400;27;19965;-73
2023/11/15 08:21:31;;;;;;;;;;;;;;;10.83;66.02;97807.53;5093302;28;19923;-72
2023/11/15 08:24:20;;;;;;;;;;;;;;;10.80;65.71;97805.44;5102640;28;20031;-71
2023/11/15 08:27:09;;;;;;;;;;;;;;;10.79;65.57;97812.00;5098444;28;20370;-72
2023/11/15 08:29:57;;;;;;;;;;;;;;;10.76;65.73;97808.00;5113017;27;19943;-71
2023/11/15 08:32:45;;;;;;;;;;;;;;;10.54;65.52;97832.50;5114677;27;20414;-71
2023/11/15 08:35:35;;;;;;;;;;;;;;;10.72;65.70;97831.47;5088898;28;20049;-71
2023/11/15 08:38:24;;;;;;;;;;;;;;;10.60;65.50;97823.91;5110990;27;19923;-71
2023/11/15 08:41:15;;;;;;;;;;;;;;;10.63;65.58;97845.00;5097506;28;19921;-71
2023/11/15 08:44:03;;;;;;;;;;;;;;;10.67;65.73;97837.03;5099578;28;20357;-71
2023/11/15 08:46:51;;;;;;;;;;;;;;;10.41;65.46;97829.56;5087606;28;20510;-72
2023/11/15 08:49:39;;;;;;;;;;;;;;;10.56;65.59;97838.44;5118541;27;19926;-72
2023/11/15 08:52:32;;;;;;;;;;;;;;;10.61;65.90;97832.88;5105697;28;19920;-72
2023/11/15 08:55:23;;;;;;;;;;;;;;;10.53;65.59;97830.91;5100652;27;20370;-72
2023/11/15 08:58:12;;;;;;;;;;;;;;;10.61;65.41;97830.16;5107656;27;19927;-74
2023/11/15 09:01:02;;;;;;;;;;;;;;;10.78;65.13;97834.84;5098554;28;19975;-72
2023/11/15 09:03:52;;;;;;;;;;;;;;;10.62;64.83;97824.41;5102489;27;20568;-71
2023/11/15 09:06:46;;;;;;;;;;;;;;;10.65;64.94;97833.81;5104825;27;20014;-73
2023/11/15 09:09:39;;;;;;;;;;;;;;;10.68;64.96;97852.22;5114725;27;19926;-71
2023/11/15 09:12:30;;;;;;;;;;;;;;;10.77;64.65;97839.50;5083243;27;20036;-72
2023/11/15 09:15:20;;;;;;;;;;;;;;;10.79;64.64;97839.97;5115658;27;19931;-72
2023/11/15 09:18:10;;;;;;;;;;;;;;;10.71;64.96;97846.97;5099355;27;19927;-72
2023/11/15 09:21:00;;;;;;;;;;;;;;;10.69;65.34;97851.09;5100445;27;19931;-72
2023/11/15 09:23:49;;;;;;;;;;;;;;;10.77;65.42;97847.63;5090271;28;19998;-72
2023/11/15 09:26:39;;;;;;;;;;;;;;;10.71;64.45;97855.13;5115774;27;20284;-71
2023/11/15 09:29:30;;;;;;;;;;;;;;;10.85;64.15;97838.69;5106671;27;19928;-71
2023/11/15 09:32:18;;;;;;;;;;;;;;;10.97;63.92;97838.91;5105632;27;19927;-71
2023/11/15 09:35:10;;;;;;;;;;;;;;;10.97;63.62;97838.91;5097238;27;19972;-72
2023/11/15 09:37:58;;;;;;;;;;;;;;;11.09;63.26;97845.66;5105124;27;20358;-71
2023/11/15 09:40:48;;;;;;;;;;;;;;;11.02;62.91;97852.38;5104884;27;19997;-71
2023/11/15 09:43:39;;;;;;;;;;;;;;;11.09;62.99;97849.19;5100741;27;20299;-71
2023/11/15 09:46:27;;;;;;;;;;;;;;;11.27;63.03;97858.97;5101287;27;19955;-74
2023/11/15 09:49:15;;;;;;;;;;;;;;;11.27;62.61;97850.81;5088965;27;19921;-71
2023/11/15 09:52:03;;;;;;;;;;;;;;;11.23;62.48;97857.19;5106240;27;19919;-71
2023/11/15 09:54:52;;;;;;;;;;;;;;;11.38;62.33;97859.47;5107305;27;20203;-72
2023/11/15 09:57:43;;;;;;;;;;;;;;;11.39;61.79;97860.25;5102243;27;19984;-72
2023/11/15 10:00:33;;;;;;;;;;;;;;;11.36;61.78;97867.16;5096920;27;20051;-71
2023/11/15 10:03:22;;;;;;;;;;;;;;;11.17;61.39;97870.13;5102988;27;19920;-71
2023/11/15 10:06:12;;;;;;;;;;;;;;;11.26;61.06;97856.56;5093853;27;19920;-71
2023/11/15 10:09:00;;;;;;;;;;;;;;;11.29;60.93;97866.81;5082056;28;19938;-71
2023/11/15 10:11:48;;;;;;;;;;;;;;;11.31;61.60;97863.78;5117012;27;19932;-71
2023/11/15 10:14:50;;;;;;;;;;;;;;;11.31;61.41;97871.94;5105452;27;19919;-71
2023/11/15 10:17:42;;;;;;;;;;;;;;;11.39;60.62;97861.06;5105743;27;19920;-72
2023/11/15 10:20:31;;;;;;;;;;;;;;;11.26;60.50;97862.81;5103519;27;19920;-71
2023/11/15 10:23:27;;;;;;;;;;;;;;;11.33;60.74;97870.50;5104350;27;19927;-71
2023/11/15 10:26:16;;;;;;;;;;;;;;;11.39;60.19;97863.00;5106343;27;19930;-71
2023/11/15 10:29:07;;;;;;;;;;;;;;;11.40;60.41;97873.56;5087146;28;19926;-70
2023/11/15 10:32:00;;;;;;;;;;;;;;;11.41;60.72;97877.09;5103802;27;19942;-71
2023/11/15 10:34:54;;;;;;;;;;;;;;;11.34;60.42;97880.25;5111893;27;19996;-72
2023/11/15 10:37:47;;;;;;;;;;;;;;;11.37;60.47;97885.06;5086858;28;20500;-72
2023/11/15 10:40:35;;;;;;;;;;;;;;;11.27;60.91;97879.94;5101305;27;20017;-71
2023/11/15 10:43:23;;;;;;;;;;;;;;;11.25;60.76;97893.06;5105110;28;20387;-72
2023/11/15 10:46:12;;;;;;;;;;;;;;;11.32;60.85;97881.69;5103044;27;19920;-72
2023/11/15 10:49:01;;;;;;;;;;;;;;;11.27;61.49;97886.16;5109983;27;19926;-71
2023/11/15 10:51:51;;;;;;;;;;;;;;;11.35;61.45;97884.59;5094533;27;19924;-72
2023/11/15 10:54:42;;;;;;;;;;;;;;;11.31;61.35;97886.34;5100829;27;20143;-73
2023/11/15 10:57:31;;;;;;;;;;;;;;;11.24;61.91;97891.47;5083253;28;19928;-72
2023/11/15 11:00:20;;;;;;;;;;;;;;;11.42;61.45;97882.22;5105463;27;20011;-70
2023/11/15 11:03:09;;;;;;;;;;;;;;;11.45;61.47;97888.91;5097655;27;20361;-71
2023/11/15 11:05:59;;;;;;;;;;;;;;;11.42;61.50;97893.09;5112306;27;19924;-71
2023/11/15 11:08:51;;;;;;;;;;;;;;;11.61;61.15;97889.25;5095327;27;19931;-73
2023/11/15 11:11:41;;;;;;;;;;;;;;;11.48;61.39;97880.94;5104953;27;19927;-71
2023/11/15 11:14:30;;;;;;;;;;;;;;;11.52;60.96;97892.78;5098546;28;19927;-73
2023/11/15 11:17:31;;;;;;;;;;;;;;;11.53;61.14;97899.03;5094637;27;20351;-71
2023/11/15 11:20:26;;;;;;;;;;;;;;;11.54;60.56;97901.41;5083519;28;19920;-71
2023/11/15 11:23:19;;;;;;;;;;;;;;;11.58;60.91;97900.81;5108542;27;19920;-71
2023/11/15 11:26:28;;;;;;;;;;;;;;;11.57;60.70;97905.44;5097419;27;21065;-72
2023/11/15 11:29:17;;;;;;;;;;;;;;;11.55;60.84;97894.06;5104024;27;20035;-71
2023/11/15 11:32:17;;;;;;;;;;;;;;;11.53;61.03;97891.66;5103208;27;20039;-71
2023/11/15 11:35:30;;;;;;;;;;;;;;;11.69;60.88;97888.50;5104138;27;20296;-71
2023/11/15 11:38:37;;;;;;;;;;;;;;;11.66;60.66;97880.94;5096229;27;19919;-72
2023/11/15 11:41:26;;;;;;;;;;;;;;;11.72;59.90;97891.38;5106604;27;20348;-71
2023/11/15 11:44:14;;;;;;;;;;;;;;;11.75;59.53;97917.16;5100494;27;19974;-71
2023/11/15 11:47:06;;;;;;;;;;;;;;;11.81;59.24;97894.09;5109092;27;19920;-71
2023/11/15 11:49:55;;;;;;;;;;;;;;;11.71;58.92;97891.69;5112233;27;20331;-71
2023/11/15 11:52:44;;;;;;;;;;;;;;;11.73;58.59;97892.19;5112669;27;20018;-71
2023/11/15 11:55:32;;;;;;;;;;;;;;;11.70;59.15;97899.03;5097355;27;20143;-71
2023/11/15 11:58:20;;;;;;;;;;;;;;;11.66;59.53;97902.72;5102098;27;19924;-70
2023/11/15 12:01:10;;;;;;;;;;;;;;;11.75;59.45;97884.47;5110124;27;19942;-71
2023/11/15 12:04:01;;;;;;;;;;;;;;;11.76;59.74;97896.97;5105808;27;19927;-71
2023/11/15 12:06:49;;;;;;;;;;;;;;;11.83;59.61;97891.91;5094074;28;20281;-71
2023/11/15 12:09:41;;;;;;;;;;;;;;;11.79;58.68;97880.81;5112183;27;19964;-71
2023/11/15 12:12:29;;;;;;;;;;;;;;;11.71;59.21;97888.97;5097475;28;19927;-72
2023/11/15 12:15:17;;;;;;;;;;;;;;;11.84;59.67;97890.78;5108926;27;19934;-71
2023/11/15 12:18:06;;;;;;;;;;;;;;;11.88;59.33;97888.19;5106247;28;19955;-71
2023/11/15 12:20:57;;;;;;;;;;;;;;;11.87;59.59;97887.41;5117380;27;19926;-71
2023/11/15 12:23:45;;;;;;;;;;;;;;;11.76;59.85;97888.81;5065913;28;21342;-71
2023/11/15 12:26:43;;;;;;;;;;;;;;;11.81;60.02;97885.94;5065675;28;20019;-71
2023/11/15 12:29:35;;;;;;;;;;;;;;;11.77;59.96;97882.22;5065398;28;19920;-71
2023/11/15 12:32:26;;;;;;;;;;;;;;;11.81;60.17;97885.94;5072408;28;19924;-71
2023/11/15 12:35:14;;;;;;;;;;;;;;;11.68;60.82;97886.88;5073502;28;20381;-71
2023/11/15 12:38:05;;;;;;;;;;;;;;;11.70;61.75;97888.16;5068756;28;19928;-72
2023/11/15 12:41:01;;;;;;;;;;;;;;;11.65;63.04;97890.22;5072642;28;19920;-71
2023/11/15 12:44:12;;;;;;;;;;;;;;;11.60;63.01;97893.91;5073078;28;19946;-71
2023/11/15 12:47:04;;;;;;;;;;;;;;;11.55;62.07;97894.06;5073806;28;19966;-71
2023/11/15 12:49:52;;;;;;;;;;;;;;;11.41;62.66;97913.25;5057731;28;19920;-71
2023/11/15 12:52:40;;;;;;;;;;;;;;;11.33;63.78;97924.91;5075748;28;19927;-71
2023/11/15 12:55:37;;;;;;;;;;;;;;;11.14;64.92;97914.28;5064119;28;19932;-71
2023/11/15 12:58:40;;;;;;;;;;;;;;;10.99;66.88;97915.50;5070506;28;19925;-71
2023/11/15 13:01:28;;;;;;;;;;;;;;;11.18;67.64;97917.16;5072637;28;20011;-71
2023/11/15 13:04:16;;;;;;;;;;;;;;;11.28;68.09;97909.53;5074887;28;19924;-71
2023/11/15 13:07:04;;;;;;;;;;;;;;;11.25;68.54;97909.38;5069529;28;19956;-71
2023/11/15 13:09:52;;;;;;;;;;;;;;;11.06;69.19;97914.25;5081245;28;19924;-72
2023/11/15 13:12:42;;;;;;;;;;;;;;;11.13;69.28;97917.31;5070972;28;19921;-71
2023/11/15 13:15:30;;;;;;;;;;;;;;;11.13;69.47;97914.59;5077484;28;19928;-71
2023/11/15 13:18:18;;;;;;;;;;;;;;;11.19;69.05;97916.88;5068038;28;19920;-73
2023/11/15 13:21:07;;;;;;;;;;;;;;;10.92;70.02;97915.16;5073099;28;19957;-71
2023/11/15 13:23:55;;;;;;;;;;;;;;;11.08;69.84;97915.56;5072197;28;20011;-72
2023/11/15 13:26:45;;;;;;;;;;;;;;;11.11;70.12;97920.34;5075605;28;19959;-70
2023/11/15 13:29:34;;;;;;;;;;;;;;;11.21;69.60;97913.81;5074373;28;20087;-72
2023/11/15 13:32:23;;;;;;;;;;;;;;;11.37;69.06;97912.28;5072460;28;19924;-72
2023/11/15 13:35:12;;;;;;;;;;;;;;;11.35;69.25;97924.59;5080285;28;19974;-72
2023/11/15 13:38:00;;;;;;;;;;;;;;;11.38;68.53;97929.41;5064279;28;19927;-72
2023/11/15 13:40:48;;;;;;;;;;;;;;;11.24;68.86;97937.69;5067392;28;20014;-71
2023/11/15 13:43:37;;;;;;;;;;;;;;;11.35;68.49;97936.28;5066220;28;19947;-71
2023/11/15 13:46:28;;;;;;;;;;;;;;;11.35;68.57;97940.91;5069427;28;20330;-71
2023/11/15 13:49:17;;;;;;;;;;;;;;;11.47;68.50;97932.94;5061141;28;20063;-72
2023/11/15 13:52:05;;;;;;;;;;;;;;;11.32;68.79;97942.34;5067984;28;20032;-71
2023/11/15 13:54:53;;;;;;;;;;;;;;;11.51;68.71;97945.59;5053400;28;20014;-72
2023/11/15 13:57:41;;;;;;;;;;;;;;;11.48;68.88;97939.97;5067354;28;20015;-71
2023/11/15 14:00:33;;;;;;;;;;;;;;;11.54;68.78;97944.97;5055466;28;19932;-74
2023/11/15 14:03:23;;;;;;;;;;;;;;;11.44;68.88;97953.41;5063275;28;19943;-72
2023/11/15 14:06:11;;;;;;;;;;;;;;;11.44;68.99;97955.31;5057082;28;19921;-71
2023/11/15 14:08:59;;;;;;;;;;;;;;;11.45;68.82;97962.38;5056701;28;19921;-72
2023/11/15 14:11:51;;;;;;;;;;;;;;;11.30;68.99;97960.09;5064606;28;20327;-72
2023/11/15 14:14:39;;;;;;;;;;;;;;;11.27;68.83;97956.88;5068610;28;19920;-72
2023/11/15 14:17:28;;;;;;;;;;;;;;;11.02;68.72;97961.09;5063622;28;20183;-72
2023/11/15 14:20:22;;;;;;;;;;;;;;;11.08;69.42;97961.78;5070529;28;19939;-72
2023/11/15 14:23:13;;;;;;;;;;;;;;;10.99;69.11;97969.88;5077370;28;20353;-73
2023/11/15 14:26:02;;;;;;;;;;;;;;;10.94;68.50;97977.38;5097776;28;19920;-71
2023/11/15 14:28:50;;;;;;;;;;;;;;;10.90;68.18;97971.75;5097878;28;19926;-72
2023/11/15 14:31:39;;;;;;;;;;;;;;;10.97;67.11;97974.00;5081497;28;19931;-71
2023/11/15 14:34:28;;;;;;;;;;;;;;;10.86;66.38;97976.19;5086959;28;19920;-71
2023/11/15 14:37:18;;;;;;;;;;;;;;;11.00;66.59;97974.19;5086322;28;19943;-71
2023/11/15 14:40:07;;;;;;;;;;;;;;;11.06;66.46;97976.78;5080191;28;19924;-71
2023/11/15 14:42:58;;;;;;;;;;;;;;;11.07;66.43;97962.88;5081643;28;20344;-72